Big Glory — H9IF — position and weather

sailwx.info

Track history (hours):
 
Tides and Currents Weather Stations Pressure Air Temp Water Temp Dewpoint Dewpoint Depression Visibility Wind Speed Wind Dir Waves Ship Positions

Big Glory

Last reported at 2015-Aug-01 14:26 UTC. Time now 2015-Aug-03 13:14 UTC.
Position N 24°17' E 120°32'.

Length 190 m; draft 12.2 m.

Type: Cargo ship. MMSI: 354285000.

Date/timePositionNaut miles runAvg speedWind from/ knotsBaromVisibWave heightAir tempDewpointWater temp
2015-Aug-01 14:26N 24°17' E 120°32'0 0.0
2015-Jul-31 07:33N 24°17' E 120°32'4 4.3
2015-Jul-31 06:33N 24°16' E 120°27'3 3.2
2015-Jul-31 05:29N 24°15' E 120°24'1111.5
2015-Jul-31 04:33N 24°08' E 120°14'1510.9
2015-Jul-31 03:10N 23°58' E 120°03'6913.5
2015-Jul-30 22:05N 22°49' E 119°54'713.0
2015-Jul-30 21:32N 22°42' E 119°56'1111.4
2015-Jul-30 20:32N 22°31' E 119°58'1210.6
2015-Jul-30 19:27N 22°20' E 120°02'910.5
2015-Jul-30 18:33N 22°12' E 120°07'  
Track history (hours):
 
Tides and Currents Weather Stations Pressure Air Temp Water Temp Dewpoint Dewpoint Depression Visibility Wind Speed Wind Dir Waves Ship Positions

Big Glory

Last reported at 2015-Aug-01 14:26 UTC. Time now 2015-Aug-03 13:14 UTC.
Position N 24°17' E 120°32'.

Length 190 m; draft 12.2 m.

Type: Cargo ship. MMSI: 354285000.

Date/timePositionNaut miles runAvg speedWind from/ knotsBaromVisibWave heightAir tempDewpointWater temp
2015-Aug-01 14:26N 24°17' E 120°32'0 0.0
2015-Jul-31 07:33N 24°17' E 120°32'4 4.3
2015-Jul-31 06:33N 24°16' E 120°27'3 3.2
2015-Jul-31 05:29N 24°15' E 120°24'1111.5
2015-Jul-31 04:33N 24°08' E 120°14'1510.9
2015-Jul-31 03:10N 23°58' E 120°03'6913.5
2015-Jul-30 22:05N 22°49' E 119°54'713.0
2015-Jul-30 21:32N 22°42' E 119°56'1111.4
2015-Jul-30 20:32N 22°31' E 119°58'1210.6
2015-Jul-30 19:27N 22°20' E 120°02'910.5
2015-Jul-30 18:33N 22°12' E 120°07'  

Dump ship's entire track history